Archival Weather

Heathrow

Heathrow, United Kingdom (EGLL)

Report from: Monday, July 18, 2022 2:50 PM BST
Current time: Monday, September 26, 2022 5:06 AM BST

Current weather
Weather history
Weather forecast

Temperature36.0°C (96.8°F)
Heat index33.9°C (93.1°F)
Dew point8.0°C (46.4°F)
Winds 10 kts (5.1 m/s, 11.5 mph) Vrb
Winds variableWinds variable from South (170°) to West-Southwest (250°)
Visibility6.2 mi. (10 km)
Clouds Sky clear
Altimeter30.06 in.Hg (1018 mB)
Relative humidity18 %
Density altitude2,377 ft. (725 m)
Remarks Fully automated report
Corrected report
No clouds detected
No significant changes expected in the next two hours
Flight conditions Visual Meteorological Conditions
Raw dataCOR EGLL 181350Z AUTO 21010KT 170V250 9999 NCD 36/08 Q1018 NOSIG
An error has occurred. This application may no longer respond until reloaded. Reload 🗙